sensor_id;sensor_type;location;lat;lon;timestamp;P1;durP1;ratioP1;P2;durP2;ratioP2
65753;SDS011;52488;47.502;18.940;2023-02-08T00:00:32;19.15;;;7.53;;
65753;SDS011;52488;47.502;18.940;2023-02-08T00:01:35;16.37;;;7.53;;
65753;SDS011;52488;47.502;18.940;2023-02-08T00:02:39;13.82;;;7.05;;
65753;SDS011;52488;47.502;18.940;2023-02-08T00:03:42;16.62;;;7.40;;
65753;SDS011;52488;47.502;18.940;2023-02-08T00:04:46;15.93;;;7.60;;
65753;SDS011;52488;47.502;18.940;2023-02-08T00:05:49;16.58;;;7.30;;
65753;SDS011;52488;47.502;18.940;2023-02-08T00:06:53;16.65;;;8.50;;
65753;SDS011;52488;47.502;18.940;2023-02-08T00:07:56;18.80;;;8.32;;
65753;SDS011;52488;47.502;18.940;2023-02-08T00:09:00;18.50;;;7.97;;
65753;SDS011;52488;47.502;18.940;2023-02-08T00:10:04;18.40;;;8.05;;
65753;SDS011;52488;47.502;18.940;2023-02-08T00:11:09;21.23;;;8.30;;
65753;SDS011;52488;47.502;18.940;2023-02-08T00:12:13;16.62;;;7.47;;
65753;SDS011;52488;47.502;18.940;2023-02-08T00:13:17;17.23;;;8.07;;
65753;SDS011;52488;47.502;18.940;2023-02-08T00:14:20;18.90;;;8.68;;
65753;SDS011;52488;47.502;18.940;2023-02-08T00:15:23;16.37;;;8.50;;
65753;SDS011;52488;47.502;18.940;2023-02-08T00:16:26;16.25;;;7.75;;
65753;SDS011;52488;47.502;18.940;2023-02-08T00:17:30;17.35;;;6.68;;
65753;SDS011;52488;47.502;18.940;2023-02-08T00:18:33;19.00;;;8.93;;
65753;SDS011;52488;47.502;18.940;2023-02-08T00:19:37;18.20;;;8.38;;
65753;SDS011;52488;47.502;18.940;2023-02-08T00:20:41;18.75;;;8.73;;
65753;SDS011;52488;47.502;18.940;2023-02-08T00:21:44;18.98;;;8.13;;
65753;SDS011;52488;47.502;18.940;2023-02-08T00:22:48;20.83;;;8.75;;
65753;SDS011;52488;47.502;18.940;2023-02-08T00:23:53;21.62;;;9.10;;
65753;SDS011;52488;47.502;18.940;2023-02-08T00:24:57;20.12;;;9.20;;
65753;SDS011;52488;47.502;18.940;2023-02-08T00:26:00;23.08;;;9.45;;
65753;SDS011;52488;47.502;18.940;2023-02-08T00:27:04;24.75;;;9.35;;
65753;SDS011;52488;47.502;18.940;2023-02-08T00:28:08;19.67;;;8.55;;
65753;SDS011;52488;47.502;18.940;2023-02-08T00:29:14;18.83;;;8.68;;
65753;SDS011;52488;47.502;18.940;2023-02-08T00:30:18;15.90;;;8.85;;
65753;SDS011;52488;47.502;18.940;2023-02-08T00:31:21;19.62;;;8.13;;
65753;SDS011;52488;47.502;18.940;2023-02-08T00:32:25;20.67;;;8.02;;
65753;SDS011;52488;47.502;18.940;2023-02-08T00:33:28;18.80;;;8.82;;
65753;SDS011;52488;47.502;18.940;2023-02-08T00:34:32;17.02;;;7.75;;
65753;SDS011;52488;47.502;18.940;2023-02-08T00:35:36;22.30;;;8.52;;
65753;SDS011;52488;47.502;18.940;2023-02-08T00:36:40;16.95;;;7.45;;
65753;SDS011;52488;47.502;18.940;2023-02-08T00:37:44;17.87;;;8.25;;
65753;SDS011;52488;47.502;18.940;2023-02-08T00:38:47;15.10;;;7.00;;
65753;SDS011;52488;47.502;18.940;2023-02-08T00:39:51;16.25;;;7.62;;
65753;SDS011;52488;47.502;18.940;2023-02-08T00:40:54;15.80;;;7.20;;
65753;SDS011;52488;47.502;18.940;2023-02-08T00:41:57;15.20;;;7.28;;
65753;SDS011;52488;47.502;18.940;2023-02-08T00:43:00;17.00;;;6.95;;
65753;SDS011;52488;47.502;18.940;2023-02-08T00:44:04;16.17;;;6.90;;
65753;SDS011;52488;47.502;18.940;2023-02-08T00:45:08;17.00;;;7.90;;
65753;SDS011;52488;47.502;18.940;2023-02-08T00:46:11;14.63;;;6.97;;
65753;SDS011;52488;47.502;18.940;2023-02-08T00:47:15;17.55;;;7.60;;
65753;SDS011;52488;47.502;18.940;2023-02-08T00:48:18;12.27;;;5.93;;
65753;SDS011;52488;47.502;18.940;2023-02-08T00:49:21;17.77;;;7.65;;
65753;SDS011;52488;47.502;18.940;2023-02-08T00:50:25;14.20;;;6.72;;
65753;SDS011;52488;47.502;18.940;2023-02-08T00:51:28;14.65;;;6.93;;
65753;SDS011;52488;47.502;18.940;2023-02-08T00:52:31;15.75;;;6.87;;
65753;SDS011;52488;47.502;18.940;2023-02-08T00:53:35;14.10;;;6.45;;
65753;SDS011;52488;47.502;18.940;2023-02-08T00:54:40;15.40;;;7.30;;
65753;SDS011;52488;47.502;18.940;2023-02-08T00:55:49;17.42;;;6.70;;
65753;SDS011;52488;47.502;18.940;2023-02-08T00:56:56;14.02;;;6.57;;
65753;SDS011;52488;47.502;18.940;2023-02-08T00:57:59;14.75;;;7.03;;
65753;SDS011;52488;47.502;18.940;2023-02-08T00:59:02;11.82;;;6.30;;
65753;SDS011;52488;47.502;18.940;2023-02-08T01:00:06;13.23;;;6.37;;
65753;SDS011;52488;47.502;18.940;2023-02-08T01:01:17;13.73;;;7.03;;
65753;SDS011;52488;47.502;18.940;2023-02-08T01:02:21;17.85;;;7.40;;
65753;SDS011;52488;47.502;18.940;2023-02-08T01:03:24;14.10;;;6.82;;
65753;SDS011;52488;47.502;18.940;2023-02-08T01:04:27;16.52;;;7.25;;
65753;SDS011;52488;47.502;18.940;2023-02-08T01:05:31;16.95;;;7.20;;
65753;SDS011;52488;47.502;18.940;2023-02-08T01:06:34;13.57;;;7.05;;
65753;SDS011;52488;47.502;18.940;2023-02-08T01:07:37;17.20;;;6.90;;
65753;SDS011;52488;47.502;18.940;2023-02-08T01:08:41;13.50;;;6.57;;
65753;SDS011;52488;47.502;18.940;2023-02-08T01:09:45;19.52;;;7.37;;
65753;SDS011;52488;47.502;18.940;2023-02-08T01:10:49;14.90;;;7.53;;
65753;SDS011;52488;47.502;18.940;2023-02-08T01:11:52;16.33;;;6.93;;
65753;SDS011;52488;47.502;18.940;2023-02-08T01:12:55;11.27;;;6.30;;
65753;SDS011;52488;47.502;18.940;2023-02-08T01:13:58;11.30;;;6.00;;
65753;SDS011;52488;47.502;18.940;2023-02-08T01:15:02;11.02;;;5.47;;
65753;SDS011;52488;47.502;18.940;2023-02-08T01:16:15;13.77;;;5.95;;
65753;SDS011;52488;47.502;18.940;2023-02-08T01:17:23;11.68;;;5.93;;
65753;SDS011;52488;47.502;18.940;2023-02-08T01:18:29;13.95;;;5.82;;
65753;SDS011;52488;47.502;18.940;2023-02-08T01:19:33;12.35;;;4.97;;
65753;SDS011;52488;47.502;18.940;2023-02-08T01:20:36;12.18;;;6.07;;
65753;SDS011;52488;47.502;18.940;2023-02-08T01:21:41;11.75;;;5.85;;
65753;SDS011;52488;47.502;18.940;2023-02-08T01:22:44;13.55;;;6.00;;
65753;SDS011;52488;47.502;18.940;2023-02-08T01:23:48;10.25;;;5.55;;
65753;SDS011;52488;47.502;18.940;2023-02-08T01:24:51;11.12;;;6.07;;
65753;SDS011;52488;47.502;18.940;2023-02-08T01:25:54;11.88;;;5.85;;
65753;SDS011;52488;47.502;18.940;2023-02-08T01:26:58;12.07;;;6.05;;
65753;SDS011;52488;47.502;18.940;2023-02-08T01:28:02;15.73;;;5.95;;
65753;SDS011;52488;47.502;18.940;2023-02-08T01:29:06;12.82;;;6.45;;
65753;SDS011;52488;47.502;18.940;2023-02-08T01:30:09;12.35;;;5.50;;
65753;SDS011;52488;47.502;18.940;2023-02-08T01:31:15;10.93;;;5.62;;
65753;SDS011;52488;47.502;18.940;2023-02-08T01:32:21;9.68;;;5.50;;
65753;SDS011;52488;47.502;18.940;2023-02-08T01:33:24;11.25;;;5.30;;
65753;SDS011;52488;47.502;18.940;2023-02-08T01:34:27;12.32;;;5.68;;
65753;SDS011;52488;47.502;18.940;2023-02-08T01:35:30;14.82;;;6.90;;
65753;SDS011;52488;47.502;18.940;2023-02-08T01:36:34;12.63;;;6.15;;
65753;SDS011;52488;47.502;18.940;2023-02-08T01:37:38;13.68;;;6.12;;
65753;SDS011;52488;47.502;18.940;2023-02-08T01:38:42;12.23;;;5.97;;
65753;SDS011;52488;47.502;18.940;2023-02-08T01:39:47;11.90;;;5.68;;
65753;SDS011;52488;47.502;18.940;2023-02-08T01:40:50;14.73;;;5.97;;
65753;SDS011;52488;47.502;18.940;2023-02-08T01:41:54;11.52;;;6.37;;
65753;SDS011;52488;47.502;18.940;2023-02-08T01:42:57;14.30;;;6.55;;
65753;SDS011;52488;47.502;18.940;2023-02-08T01:46:24;14.25;;;6.82;;
65753;SDS011;52488;47.502;18.940;2023-02-08T01:47:28;15.10;;;6.78;;
65753;SDS011;52488;47.502;18.940;2023-02-08T01:48:39;13.48;;;6.87;;
65753;SDS011;52488;47.502;18.940;2023-02-08T01:49:43;15.68;;;6.60;;
65753;SDS011;52488;47.502;18.940;2023-02-08T01:50:49;14.90;;;6.55;;
65753;SDS011;52488;47.502;18.940;2023-02-08T01:52:02;11.18;;;6.15;;
65753;SDS011;52488;47.502;18.940;2023-02-08T01:53:19;11.32;;;5.20;;
65753;SDS011;52488;47.502;18.940;2023-02-08T01:54:23;10.68;;;5.80;;
65753;SDS011;52488;47.502;18.940;2023-02-08T01:55:30;13.38;;;6.10;;
65753;SDS011;52488;47.502;18.940;2023-02-08T01:56:41;13.70;;;6.57;;
65753;SDS011;52488;47.502;18.940;2023-02-08T01:57:47;16.50;;;6.50;;
65753;SDS011;52488;47.502;18.940;2023-02-08T01:58:59;11.65;;;5.30;;
65753;SDS011;52488;47.502;18.940;2023-02-08T02:00:16;16.30;;;6.05;;
65753;SDS011;52488;47.502;18.940;2023-02-08T02:01:24;12.00;;;5.80;;
65753;SDS011;52488;47.502;18.940;2023-02-08T02:02:29;13.73;;;5.70;;
65753;SDS011;52488;47.502;18.940;2023-02-08T02:03:33;12.37;;;5.53;;
65753;SDS011;52488;47.502;18.940;2023-02-08T02:04:37;12.80;;;5.62;;
65753;SDS011;52488;47.502;18.940;2023-02-08T02:05:41;13.18;;;6.68;;
65753;SDS011;52488;47.502;18.940;2023-02-08T02:06:50;12.95;;;5.68;;
65753;SDS011;52488;47.502;18.940;2023-02-08T02:07:55;14.50;;;5.93;;
65753;SDS011;52488;47.502;18.940;2023-02-08T02:09:12;10.20;;;5.00;;
65753;SDS011;52488;47.502;18.940;2023-02-08T02:10:40;12.30;;;5.07;;
65753;SDS011;52488;47.502;18.940;2023-02-08T02:11:45;10.13;;;5.32;;
65753;SDS011;52488;47.502;18.940;2023-02-08T02:12:48;10.63;;;5.60;;
65753;SDS011;52488;47.502;18.940;2023-02-08T02:13:53;10.77;;;5.30;;
65753;SDS011;52488;47.502;18.940;2023-02-08T02:14:56;15.35;;;5.60;;
65753;SDS011;52488;47.502;18.940;2023-02-08T02:16:01;9.45;;;4.80;;
65753;SDS011;52488;47.502;18.940;2023-02-08T02:17:07;10.65;;;4.93;;
65753;SDS011;52488;47.502;18.940;2023-02-08T02:18:20;10.85;;;5.50;;
65753;SDS011;52488;47.502;18.940;2023-02-08T02:19:39;10.82;;;5.35;;
65753;SDS011;52488;47.502;18.940;2023-02-08T02:20:56;13.95;;;5.40;;
65753;SDS011;52488;47.502;18.940;2023-02-08T02:22:09;14.77;;;5.32;;
65753;SDS011;52488;47.502;18.940;2023-02-08T02:26:44;7.03;;;3.97;;
65753;SDS011;52488;47.502;18.940;2023-02-08T02:32:20;13.02;;;4.97;;
65753;SDS011;52488;47.502;18.940;2023-02-08T02:33:30;9.48;;;4.57;;
65753;SDS011;52488;47.502;18.940;2023-02-08T02:34:48;9.20;;;4.90;;
65753;SDS011;52488;47.502;18.940;2023-02-08T02:37:29;8.97;;;5.23;;
65753;SDS011;52488;47.502;18.940;2023-02-08T02:38:48;11.88;;;5.18;;
65753;SDS011;52488;47.502;18.940;2023-02-08T02:43:03;10.10;;;5.03;;
65753;SDS011;52488;47.502;18.940;2023-02-08T02:46:51;11.35;;;5.30;;
65753;SDS011;52488;47.502;18.940;2023-02-08T02:48:10;13.30;;;5.40;;
65753;SDS011;52488;47.502;18.940;2023-02-08T02:49:22;10.02;;;5.20;;
65753;SDS011;52488;47.502;18.940;2023-02-08T02:50:36;14.73;;;6.12;;
65753;SDS011;52488;47.502;18.940;2023-02-08T02:51:46;11.88;;;5.28;;
65753;SDS011;52488;47.502;18.940;2023-02-08T02:54:12;12.25;;;5.80;;
65753;SDS011;52488;47.502;18.940;2023-02-08T02:55:21;13.18;;;5.90;;
65753;SDS011;52488;47.502;18.940;2023-02-08T02:56:33;11.93;;;5.53;;
65753;SDS011;52488;47.502;18.940;2023-02-08T02:57:39;13.18;;;5.68;;
65753;SDS011;52488;47.502;18.940;2023-02-08T02:58:44;12.10;;;5.78;;
65753;SDS011;52488;47.502;18.940;2023-02-08T02:59:48;12.35;;;5.57;;
65753;SDS011;52488;47.502;18.940;2023-02-08T03:00:52;14.23;;;6.30;;
65753;SDS011;52488;47.502;18.940;2023-02-08T03:02:00;13.88;;;6.53;;
65753;SDS011;52488;47.502;18.940;2023-02-08T03:03:04;14.85;;;5.47;;
65753;SDS011;52488;47.502;18.940;2023-02-08T03:04:18;15.23;;;5.97;;
65753;SDS011;52488;47.502;18.940;2023-02-08T03:05:43;8.90;;;4.65;;
65753;SDS011;52488;47.502;18.940;2023-02-08T03:08:15;12.02;;;5.62;;
65753;SDS011;52488;47.502;18.940;2023-02-08T03:11:22;7.87;;;5.05;;
65753;SDS011;52488;47.502;18.940;2023-02-08T03:15:44;10.82;;;5.18;;
65753;SDS011;52488;47.502;18.940;2023-02-08T03:17:14;11.32;;;5.30;;
65753;SDS011;52488;47.502;18.940;2023-02-08T03:19:43;9.30;;;4.37;;
65753;SDS011;52488;47.502;18.940;2023-02-08T03:21:00;12.68;;;4.70;;
65753;SDS011;52488;47.502;18.940;2023-02-08T03:24:08;12.10;;;4.57;;
65753;SDS011;52488;47.502;18.940;2023-02-08T03:25:39;13.32;;;4.90;;
65753;SDS011;52488;47.502;18.940;2023-02-08T03:26:57;14.18;;;5.47;;
65753;SDS011;52488;47.502;18.940;2023-02-08T03:28:08;8.63;;;4.20;;
65753;SDS011;52488;47.502;18.940;2023-02-08T03:29:40;11.00;;;5.20;;
65753;SDS011;52488;47.502;18.940;2023-02-08T03:32:45;9.65;;;4.35;;
65753;SDS011;52488;47.502;18.940;2023-02-08T03:33:55;8.43;;;4.82;;
65753;SDS011;52488;47.502;18.940;2023-02-08T03:36:37;11.80;;;4.12;;
65753;SDS011;52488;47.502;18.940;2023-02-08T03:37:52;8.60;;;4.72;;
65753;SDS011;52488;47.502;18.940;2023-02-08T03:38:56;9.43;;;5.00;;
65753;SDS011;52488;47.502;18.940;2023-02-08T03:40:06;10.18;;;4.68;;
65753;SDS011;52488;47.502;18.940;2023-02-08T03:41:21;10.40;;;4.93;;
65753;SDS011;52488;47.502;18.940;2023-02-08T03:42:29;9.55;;;4.40;;
65753;SDS011;52488;47.502;18.940;2023-02-08T03:43:39;8.95;;;3.70;;
65753;SDS011;52488;47.502;18.940;2023-02-08T03:45:04;12.07;;;5.18;;
65753;SDS011;52488;47.502;18.940;2023-02-08T03:46:20;10.93;;;4.45;;
65753;SDS011;52488;47.502;18.940;2023-02-08T03:47:28;10.40;;;4.70;;
65753;SDS011;52488;47.502;18.940;2023-02-08T03:48:37;9.40;;;5.12;;
65753;SDS011;52488;47.502;18.940;2023-02-08T03:49:47;9.40;;;4.40;;
65753;SDS011;52488;47.502;18.940;2023-02-08T03:50:54;8.45;;;3.90;;
65753;SDS011;52488;47.502;18.940;2023-02-08T03:52:01;9.25;;;4.43;;
65753;SDS011;52488;47.502;18.940;2023-02-08T03:53:07;8.70;;;4.30;;
65753;SDS011;52488;47.502;18.940;2023-02-08T03:54:16;9.68;;;4.37;;
65753;SDS011;52488;47.502;18.940;2023-02-08T03:55:25;8.32;;;4.18;;
65753;SDS011;52488;47.502;18.940;2023-02-08T03:56:37;10.70;;;4.43;;
65753;SDS011;52488;47.502;18.940;2023-02-08T03:58:59;9.77;;;4.57;;
65753;SDS011;52488;47.502;18.940;2023-02-08T04:00:08;8.23;;;4.20;;
65753;SDS011;52488;47.502;18.940;2023-02-08T04:01:22;8.45;;;3.95;;
65753;SDS011;52488;47.502;18.940;2023-02-08T04:02:32;7.80;;;3.97;;
65753;SDS011;52488;47.502;18.940;2023-02-08T04:03:39;9.05;;;4.40;;
65753;SDS011;52488;47.502;18.940;2023-02-08T04:04:43;11.45;;;4.53;;
65753;SDS011;52488;47.502;18.940;2023-02-08T04:05:51;12.88;;;4.97;;
65753;SDS011;52488;47.502;18.940;2023-02-08T04:06:54;12.37;;;4.60;;
65753;SDS011;52488;47.502;18.940;2023-02-08T04:07:58;5.68;;;3.58;;
65753;SDS011;52488;47.502;18.940;2023-02-08T04:09:01;9.95;;;3.70;;
65753;SDS011;52488;47.502;18.940;2023-02-08T04:10:05;9.20;;;3.75;;
65753;SDS011;52488;47.502;18.940;2023-02-08T04:11:09;12.30;;;4.85;;
65753;SDS011;52488;47.502;18.940;2023-02-08T04:12:13;14.10;;;5.40;;
65753;SDS011;52488;47.502;18.940;2023-02-08T04:13:16;9.75;;;4.28;;
65753;SDS011;52488;47.502;18.940;2023-02-08T04:14:20;8.10;;;4.25;;
65753;SDS011;52488;47.502;18.940;2023-02-08T04:15:23;8.43;;;4.28;;
65753;SDS011;52488;47.502;18.940;2023-02-08T04:16:28;7.70;;;3.83;;
65753;SDS011;52488;47.502;18.940;2023-02-08T04:17:32;8.68;;;4.35;;
65753;SDS011;52488;47.502;18.940;2023-02-08T04:18:35;7.05;;;4.10;;
65753;SDS011;52488;47.502;18.940;2023-02-08T04:19:39;9.15;;;4.22;;
65753;SDS011;52488;47.502;18.940;2023-02-08T04:20:42;6.62;;;4.00;;
65753;SDS011;52488;47.502;18.940;2023-02-08T04:21:46;9.20;;;4.32;;
65753;SDS011;52488;47.502;18.940;2023-02-08T04:22:49;8.85;;;4.40;;
65753;SDS011;52488;47.502;18.940;2023-02-08T04:23:52;9.30;;;4.20;;
65753;SDS011;52488;47.502;18.940;2023-02-08T04:24:56;11.43;;;4.45;;
65753;SDS011;52488;47.502;18.940;2023-02-08T04:25:59;9.73;;;4.07;;
65753;SDS011;52488;47.502;18.940;2023-02-08T04:27:02;7.85;;;4.18;;
65753;SDS011;52488;47.502;18.940;2023-02-08T04:28:07;10.40;;;4.00;;
65753;SDS011;52488;47.502;18.940;2023-02-08T04:29:11;6.95;;;3.62;;
65753;SDS011;52488;47.502;18.940;2023-02-08T04:30:15;10.30;;;4.95;;
65753;SDS011;52488;47.502;18.940;2023-02-08T04:31:18;11.05;;;4.43;;
65753;SDS011;52488;47.502;18.940;2023-02-08T04:32:22;8.65;;;4.30;;
65753;SDS011;52488;47.502;18.940;2023-02-08T04:33:25;8.82;;;4.15;;
65753;SDS011;52488;47.502;18.940;2023-02-08T04:34:29;8.73;;;3.87;;
65753;SDS011;52488;47.502;18.940;2023-02-08T04:35:32;10.07;;;4.15;;
65753;SDS011;52488;47.502;18.940;2023-02-08T04:36:35;9.98;;;4.22;;
65753;SDS011;52488;47.502;18.940;2023-02-08T04:37:39;11.05;;;4.47;;
65753;SDS011;52488;47.502;18.940;2023-02-08T04:38:42;9.13;;;4.10;;
65753;SDS011;52488;47.502;18.940;2023-02-08T04:39:45;7.28;;;3.60;;
65753;SDS011;52488;47.502;18.940;2023-02-08T04:40:48;8.10;;;3.80;;
65753;SDS011;52488;47.502;18.940;2023-02-08T04:41:52;10.93;;;4.37;;
65753;SDS011;52488;47.502;18.940;2023-02-08T04:42:55;8.13;;;3.95;;
65753;SDS011;52488;47.502;18.940;2023-02-08T04:43:58;7.65;;;4.05;;
65753;SDS011;52488;47.502;18.940;2023-02-08T04:45:01;8.80;;;3.85;;
65753;SDS011;52488;47.502;18.940;2023-02-08T04:46:05;9.50;;;3.67;;
65753;SDS011;52488;47.502;18.940;2023-02-08T04:47:09;8.00;;;3.80;;
65753;SDS011;52488;47.502;18.940;2023-02-08T04:48:12;7.53;;;4.10;;
65753;SDS011;52488;47.502;18.940;2023-02-08T04:49:15;7.78;;;3.60;;
65753;SDS011;52488;47.502;18.940;2023-02-08T04:50:18;9.65;;;4.18;;
65753;SDS011;52488;47.502;18.940;2023-02-08T04:51:22;9.05;;;4.12;;
65753;SDS011;52488;47.502;18.940;2023-02-08T04:52:25;9.02;;;3.90;;
65753;SDS011;52488;47.502;18.940;2023-02-08T04:53:29;9.02;;;4.03;;
65753;SDS011;52488;47.502;18.940;2023-02-08T04:54:32;10.10;;;4.45;;
65753;SDS011;52488;47.502;18.940;2023-02-08T04:55:35;7.20;;;3.75;;
65753;SDS011;52488;47.502;18.940;2023-02-08T04:56:38;10.15;;;4.35;;
65753;SDS011;52488;47.502;18.940;2023-02-08T04:57:42;8.55;;;4.07;;
65753;SDS011;52488;47.502;18.940;2023-02-08T04:58:45;9.23;;;4.07;;
65753;SDS011;52488;47.502;18.940;2023-02-08T04:59:50;6.82;;;3.62;;
65753;SDS011;52488;47.502;18.940;2023-02-08T05:00:54;8.23;;;3.95;;
65753;SDS011;52488;47.502;18.940;2023-02-08T05:01:57;7.07;;;3.58;;
65753;SDS011;52488;47.502;18.940;2023-02-08T05:03:01;8.77;;;4.28;;
65753;SDS011;52488;47.502;18.940;2023-02-08T05:04:05;7.80;;;3.95;;
65753;SDS011;52488;47.502;18.940;2023-02-08T05:05:08;7.25;;;3.58;;
65753;SDS011;52488;47.502;18.940;2023-02-08T05:06:11;8.68;;;4.00;;
65753;SDS011;52488;47.502;18.940;2023-02-08T05:07:15;8.45;;;3.90;;
65753;SDS011;52488;47.502;18.940;2023-02-08T05:08:19;9.48;;;3.55;;
65753;SDS011;52488;47.502;18.940;2023-02-08T05:09:23;6.28;;;3.60;;
65753;SDS011;52488;47.502;18.940;2023-02-08T05:10:26;7.37;;;3.67;;
65753;SDS011;52488;47.502;18.940;2023-02-08T05:11:30;8.88;;;4.32;;
65753;SDS011;52488;47.502;18.940;2023-02-08T05:12:33;9.15;;;4.07;;
65753;SDS011;52488;47.502;18.940;2023-02-08T05:13:36;6.68;;;3.85;;
65753;SDS011;52488;47.502;18.940;2023-02-08T05:14:40;11.00;;;4.32;;
65753;SDS011;52488;47.502;18.940;2023-02-08T05:15:43;8.63;;;4.00;;
65753;SDS011;52488;47.502;18.940;2023-02-08T05:16:47;7.03;;;3.60;;
65753;SDS011;52488;47.502;18.940;2023-02-08T05:17:50;7.35;;;3.83;;
65753;SDS011;52488;47.502;18.940;2023-02-08T05:18:55;7.47;;;3.65;;
65753;SDS011;52488;47.502;18.940;2023-02-08T05:19:58;9.73;;;4.12;;
65753;SDS011;52488;47.502;18.940;2023-02-08T05:21:02;7.95;;;3.78;;
65753;SDS011;52488;47.502;18.940;2023-02-08T05:22:05;6.75;;;3.70;;
65753;SDS011;52488;47.502;18.940;2023-02-08T05:23:09;9.65;;;4.60;;
65753;SDS011;52488;47.502;18.940;2023-02-08T05:24:12;6.30;;;3.42;;
65753;SDS011;52488;47.502;18.940;2023-02-08T05:25:15;12.40;;;4.72;;
65753;SDS011;52488;47.502;18.940;2023-02-08T05:26:19;7.12;;;3.60;;
65753;SDS011;52488;47.502;18.940;2023-02-08T05:27:23;6.47;;;3.50;;
65753;SDS011;52488;47.502;18.940;2023-02-08T05:28:28;8.35;;;3.92;;
65753;SDS011;52488;47.502;18.940;2023-02-08T05:29:31;9.65;;;3.92;;
65753;SDS011;52488;47.502;18.940;2023-02-08T05:30:36;7.75;;;3.62;;
65753;SDS011;52488;47.502;18.940;2023-02-08T05:31:40;6.93;;;3.90;;
65753;SDS011;52488;47.502;18.940;2023-02-08T05:32:44;8.60;;;3.53;;
65753;SDS011;52488;47.502;18.940;2023-02-08T05:33:48;7.82;;;3.75;;
65753;SDS011;52488;47.502;18.940;2023-02-08T05:34:52;8.57;;;3.85;;
65753;SDS011;52488;47.502;18.940;2023-02-08T05:35:55;7.53;;;3.72;;
65753;SDS011;52488;47.502;18.940;2023-02-08T05:36:58;8.88;;;3.85;;
65753;SDS011;52488;47.502;18.940;2023-02-08T05:38:01;9.43;;;4.22;;
65753;SDS011;52488;47.502;18.940;2023-02-08T05:39:05;7.95;;;3.85;;
65753;SDS011;52488;47.502;18.940;2023-02-08T05:40:08;11.35;;;4.05;;
65753;SDS011;52488;47.502;18.940;2023-02-08T05:41:15;8.55;;;3.58;;
65753;SDS011;52488;47.502;18.940;2023-02-08T05:42:19;7.97;;;3.50;;
65753;SDS011;52488;47.502;18.940;2023-02-08T05:43:23;7.40;;;3.97;;
65753;SDS011;52488;47.502;18.940;2023-02-08T05:44:26;7.82;;;4.00;;
65753;SDS011;52488;47.502;18.940;2023-02-08T05:45:29;8.45;;;3.62;;
65753;SDS011;52488;47.502;18.940;2023-02-08T05:46:32;8.55;;;3.65;;
65753;SDS011;52488;47.502;18.940;2023-02-08T05:47:40;7.75;;;4.00;;
65753;SDS011;52488;47.502;18.940;2023-02-08T05:48:44;8.80;;;4.20;;
65753;SDS011;52488;47.502;18.940;2023-02-08T05:49:47;8.02;;;4.28;;
65753;SDS011;52488;47.502;18.940;2023-02-08T05:50:50;8.88;;;4.12;;
65753;SDS011;52488;47.502;18.940;2023-02-08T05:51:53;8.88;;;3.95;;
65753;SDS011;52488;47.502;18.940;2023-02-08T05:52:57;7.82;;;4.00;;
65753;SDS011;52488;47.502;18.940;2023-02-08T05:54:00;8.48;;;3.78;;
65753;SDS011;52488;47.502;18.940;2023-02-08T05:55:04;9.70;;;4.10;;
65753;SDS011;52488;47.502;18.940;2023-02-08T05:56:07;8.25;;;3.90;;
65753;SDS011;52488;47.502;18.940;2023-02-08T05:57:10;10.52;;;3.90;;
65753;SDS011;52488;47.502;18.940;2023-02-08T05:58:15;8.27;;;3.95;;
65753;SDS011;52488;47.502;18.940;2023-02-08T05:59:19;7.32;;;3.72;;
65753;SDS011;52488;47.502;18.940;2023-02-08T06:00:22;10.25;;;3.85;;
65753;SDS011;52488;47.502;18.940;2023-02-08T06:01:26;7.05;;;3.50;;
65753;SDS011;52488;47.502;18.940;2023-02-08T06:02:30;7.07;;;3.92;;
65753;SDS011;52488;47.502;18.940;2023-02-08T06:03:34;8.05;;;3.92;;
65753;SDS011;52488;47.502;18.940;2023-02-08T06:04:37;7.97;;;4.00;;
65753;SDS011;52488;47.502;18.940;2023-02-08T06:05:41;8.10;;;3.83;;
65753;SDS011;52488;47.502;18.940;2023-02-08T06:06:44;8.20;;;4.05;;
65753;SDS011;52488;47.502;18.940;2023-02-08T06:07:47;7.37;;;3.80;;
65753;SDS011;52488;47.502;18.940;2023-02-08T06:08:51;10.68;;;4.00;;
65753;SDS011;52488;47.502;18.940;2023-02-08T06:09:54;11.38;;;4.55;;
65753;SDS011;52488;47.502;18.940;2023-02-08T06:10:57;7.10;;;3.75;;
65753;SDS011;52488;47.502;18.940;2023-02-08T06:12:01;10.10;;;4.15;;
65753;SDS011;52488;47.502;18.940;2023-02-08T06:13:04;9.75;;;4.40;;
65753;SDS011;52488;47.502;18.940;2023-02-08T06:14:07;8.75;;;4.47;;
65753;SDS011;52488;47.502;18.940;2023-02-08T06:15:10;7.97;;;3.65;;
65753;SDS011;52488;47.502;18.940;2023-02-08T06:16:14;9.00;;;4.05;;
65753;SDS011;52488;47.502;18.940;2023-02-08T06:17:21;8.07;;;3.83;;
65753;SDS011;52488;47.502;18.940;2023-02-08T06:18:25;13.82;;;4.22;;
65753;SDS011;52488;47.502;18.940;2023-02-08T06:19:29;7.65;;;3.28;;
65753;SDS011;52488;47.502;18.940;2023-02-08T06:20:32;8.35;;;4.20;;
65753;SDS011;52488;47.502;18.940;2023-02-08T06:21:36;8.05;;;4.10;;
65753;SDS011;52488;47.502;18.940;2023-02-08T06:22:39;7.35;;;3.95;;
65753;SDS011;52488;47.502;18.940;2023-02-08T06:23:43;7.18;;;4.35;;
65753;SDS011;52488;47.502;18.940;2023-02-08T06:24:46;12.43;;;4.35;;
65753;SDS011;52488;47.502;18.940;2023-02-08T06:25:50;8.02;;;3.83;;
65753;SDS011;52488;47.502;18.940;2023-02-08T06:26:55;8.70;;;3.67;;
65753;SDS011;52488;47.502;18.940;2023-02-08T06:27:58;6.32;;;3.97;;
65753;SDS011;52488;47.502;18.940;2023-02-08T06:29:03;7.90;;;3.80;;
65753;SDS011;52488;47.502;18.940;2023-02-08T06:30:06;6.85;;;3.30;;
65753;SDS011;52488;47.502;18.940;2023-02-08T06:31:13;7.07;;;3.72;;
65753;SDS011;52488;47.502;18.940;2023-02-08T06:32:16;7.65;;;3.97;;
65753;SDS011;52488;47.502;18.940;2023-02-08T06:33:20;5.65;;;3.40;;
65753;SDS011;52488;47.502;18.940;2023-02-08T06:34:23;7.37;;;4.12;;
65753;SDS011;52488;47.502;18.940;2023-02-08T06:35:26;8.38;;;3.62;;
65753;SDS011;52488;47.502;18.940;2023-02-08T06:36:30;7.25;;;4.28;;
65753;SDS011;52488;47.502;18.940;2023-02-08T06:37:33;13.80;;;4.22;;
65753;SDS011;52488;47.502;18.940;2023-02-08T06:38:37;8.50;;;4.43;;
65753;SDS011;52488;47.502;18.940;2023-02-08T06:39:40;8.77;;;4.18;;
65753;SDS011;52488;47.502;18.940;2023-02-08T06:40:45;7.70;;;4.07;;
65753;SDS011;52488;47.502;18.940;2023-02-08T06:41:49;10.07;;;4.20;;
65753;SDS011;52488;47.502;18.940;2023-02-08T06:42:52;10.02;;;4.05;;
65753;SDS011;52488;47.502;18.940;2023-02-08T06:43:55;8.52;;;4.45;;
65753;SDS011;52488;47.502;18.940;2023-02-08T06:45:01;9.07;;;3.97;;
65753;SDS011;52488;47.502;18.940;2023-02-08T06:46:04;11.43;;;4.32;;
65753;SDS011;52488;47.502;18.940;2023-02-08T06:47:10;8.80;;;4.28;;
65753;SDS011;52488;47.502;18.940;2023-02-08T06:48:15;9.13;;;4.43;;
65753;SDS011;52488;47.502;18.940;2023-02-08T06:49:19;10.80;;;4.60;;
65753;SDS011;52488;47.502;18.940;2023-02-08T06:50:22;7.00;;;3.80;;
65753;SDS011;52488;47.502;18.940;2023-02-08T06:51:26;9.27;;;4.20;;
65753;SDS011;52488;47.502;18.940;2023-02-08T06:52:29;11.55;;;4.47;;
65753;SDS011;52488;47.502;18.940;2023-02-08T06:53:33;9.15;;;4.20;;
65753;SDS011;52488;47.502;18.940;2023-02-08T06:54:36;8.73;;;4.45;;
65753;SDS011;52488;47.502;18.940;2023-02-08T06:55:39;8.93;;;3.60;;
65753;SDS011;52488;47.502;18.940;2023-02-08T06:56:43;5.93;;;3.42;;
65753;SDS011;52488;47.502;18.940;2023-02-08T06:57:46;9.90;;;4.18;;
65753;SDS011;52488;47.502;18.940;2023-02-08T06:58:50;8.65;;;4.20;;
65753;SDS011;52488;47.502;18.940;2023-02-08T06:59:54;8.25;;;4.12;;